Hovedside
METAR-TAF:

METAR-TAF

Lufthavner :

Røst lufthavn

Røst, Norge

breddegrad: 67-31N, lengdegrad: 012-06E, høyde over havet: 4 m

Gjeldene værobservasjon

Denne rapporten ble laget for 5 timer og 21 minutter siden, klokken 07:20 UTC
Vind 17 kt fra Vest-nordvest
Temperatur 0°C
Luftfuktighet 64%
Trykk 994 hPa
Sikt 10 km eller mer
Få skyer i en høyde av 1500 ft, Bygeskyer.
Spredte skyer i en høyde av 2500 ft
regnbyger i nærheten

METAR: ENRS 240720Z 30017KT 9999 VCSH FEW015CB SCT025 M00/M06 Q0994

Tid: 13:41 (12:41 UTC)


TAF: fraværende

Værobservasjoner og værvarsel for over 4000 flyplasser (METAR- og TAF-rapporter).

Tilgjengelige stasjoner er representert av de røde og gule prikkene på kartet.

Hold musepekeren over prikken for å se navnet på stasjonen.

Klikk så for å se værobservasjoner og -varsler.

For å forandre kartet kan du klikke på den grønne knappen med svart kryss for å zoome inn, på den grønne knappen med strek for å zoome ut, eller på de grønne pilene for å se tilstøtende kart.


METAR-TAF: